createdAt,value
2022-11-16T00:01:34.311Z,100486.13
2022-11-16T00:03:36.382Z,100480.13
2022-11-16T00:05:38.153Z,100474.31
2022-11-16T00:07:40.203Z,100480.97
2022-11-16T00:09:42.120Z,100479.63
2022-11-16T00:11:43.969Z,100474.38
2022-11-16T00:13:45.950Z,100471.00
2022-11-16T00:15:55.549Z,100474.81
2022-11-16T00:17:57.309Z,100473.34
2022-11-16T00:19:59.266Z,100474.09
2022-11-16T00:22:01.300Z,100473.75
2022-11-16T00:24:04.136Z,100483.13
2022-11-16T00:26:07.803Z,100487.53
2022-11-16T00:28:09.775Z,100485.06
2022-11-16T00:30:11.971Z,100473.31
2022-11-16T00:32:13.738Z,100471.63
2022-11-16T00:34:16.255Z,100460.13
2022-11-16T00:36:18.056Z,100467.19
2022-11-16T00:38:19.936Z,100458.13
2022-11-16T00:40:21.824Z,100449.19
2022-11-16T00:42:23.670Z,100467.81
2022-11-16T00:44:25.410Z,100475.22
2022-11-16T00:46:27.536Z,100467.66
2022-11-16T00:48:29.322Z,100468.50
2022-11-16T00:50:31.440Z,100468.38
2022-11-16T00:52:33.305Z,100461.47
2022-11-16T00:54:35.055Z,100455.22
2022-11-16T00:56:37.877Z,100449.72
2022-11-16T00:58:40.027Z,100449.25
2022-11-16T01:00:43.258Z,100441.25
2022-11-16T01:02:45.039Z,100454.03
2022-11-16T01:04:47.638Z,100451.16
2022-11-16T01:06:49.499Z,100458.81
2022-11-16T01:08:52.127Z,100451.88
2022-11-16T01:10:54.203Z,100471.38
2022-11-16T01:12:56.511Z,100458.34
2022-11-16T01:14:58.252Z,100461.13
2022-11-16T01:17:00.557Z,100455.84
2022-11-16T01:19:03.124Z,100459.75
2022-11-16T01:21:06.906Z,100459.66
2022-11-16T01:23:08.932Z,100460.25
2022-11-16T01:25:12.238Z,100458.94
2022-11-16T01:27:14.922Z,100454.78
2022-11-16T01:29:16.940Z,100446.47
2022-11-16T01:31:18.959Z,100454.25
2022-11-16T01:33:20.749Z,100447.44
2022-11-16T01:35:23.523Z,100453.78
2022-11-16T01:37:26.757Z,100444.69
2022-11-16T01:39:28.492Z,100440.03
2022-11-16T01:41:30.447Z,100445.97
2022-11-16T01:43:50.649Z,100426.88
2022-11-16T01:45:52.798Z,100436.34
2022-11-16T01:47:55.436Z,100432.81
2022-11-16T01:50:14.369Z,100435.66
2022-11-16T01:52:20.411Z,100435.72
2022-11-16T01:54:22.415Z,100433.41
2022-11-16T01:56:25.971Z,100420.41
2022-11-16T01:58:27.880Z,100424.44
2022-11-16T02:00:30.241Z,100417.81
2022-11-16T02:02:32.009Z,100411.47
2022-11-16T02:04:33.749Z,100406.88
2022-11-16T02:07:00.605Z,100410.66
2022-11-16T02:09:08.400Z,100395.38
2022-11-16T02:11:15.751Z,100396.81
2022-11-16T02:13:34.160Z,100402.78
2022-11-16T02:16:10.984Z,100400.13
2022-11-16T02:18:41.684Z,100394.56
2022-11-16T02:20:58.483Z,100396.69
2022-11-16T02:23:37.396Z,100351.19
2022-11-16T02:26:03.393Z,100394.31
2022-11-16T02:28:16.859Z,100387.97
2022-11-16T02:30:20.010Z,100384.22
2022-11-16T02:32:34.501Z,100386.91
2022-11-16T02:35:01.467Z,100391.44
2022-11-16T02:37:07.237Z,100393.59
2022-11-16T02:39:15.523Z,100391.06
2022-11-16T02:41:21.762Z,100400.22
2022-11-16T02:43:29.451Z,100396.63
2022-11-16T02:45:35.373Z,100388.66
2022-11-16T02:47:39.761Z,100393.41
2022-11-16T02:49:47.167Z,100386.97
2022-11-16T02:51:51.064Z,100397.91
2022-11-16T02:54:02.519Z,100403.31
2022-11-16T02:56:04.293Z,100399.34
2022-11-16T02:58:09.651Z,100400.88
2022-11-16T03:00:18.954Z,100398.25
2022-11-16T03:02:24.394Z,100399.25
2022-11-16T03:04:36.481Z,100388.44
2022-11-16T03:06:41.546Z,100383.41
2022-11-16T03:08:48.137Z,100380.66
2022-11-16T03:10:55.811Z,100377.53
2022-11-16T03:12:58.584Z,100381.72
2022-11-16T03:15:05.086Z,100373.81
2022-11-16T03:17:11.541Z,100367.69
2022-11-16T03:19:22.012Z,100375.19
2022-11-16T03:21:49.756Z,100372.97
2022-11-16T03:23:51.935Z,100374.66
2022-11-16T03:25:57.073Z,100365.47
2022-11-16T03:27:58.764Z,100381.59
2022-11-16T03:30:14.708Z,100379.84
2022-11-16T03:32:29.955Z,100370.97
2022-11-16T03:34:35.845Z,100376.69
2022-11-16T03:36:42.947Z,100372.53
2022-11-16T03:38:47.390Z,100374.97
2022-11-16T03:40:51.039Z,100367.31
2022-11-16T03:42:53.223Z,100365.59
2022-11-16T03:44:55.915Z,100377.31
2022-11-16T03:46:57.712Z,100371.09
2022-11-16T03:49:01.228Z,100374.88
2022-11-16T03:51:04.042Z,100374.13
2022-11-16T03:53:05.823Z,100371.56
2022-11-16T03:55:08.068Z,100372.72
2022-11-16T03:57:09.835Z,100370.09
2022-11-16T03:59:11.554Z,100363.34
2022-11-16T04:01:13.551Z,100361.09
2022-11-16T04:03:15.372Z,100356.56
2022-11-16T04:05:17.428Z,100346.69
2022-11-16T04:07:19.484Z,100355.50
2022-11-16T04:09:21.274Z,100357.09
2022-11-16T04:11:23.481Z,100358.13
2022-11-16T04:13:29.758Z,100347.41
2022-11-16T04:15:31.634Z,100349.84
2022-11-16T04:17:33.739Z,100349.88
2022-11-16T04:19:35.564Z,100347.28
2022-11-16T04:21:40.979Z,100337.19
2022-11-16T04:23:43.042Z,100345.53
2022-11-16T04:25:47.361Z,100348.44
2022-11-16T04:27:49.400Z,100345.47
2022-11-16T04:29:51.410Z,100346.13
2022-11-16T04:31:53.236Z,100344.50
2022-11-16T04:33:54.972Z,100344.19
2022-11-16T04:35:56.649Z,100350.19
2022-11-16T04:37:59.835Z,100343.88
2022-11-16T04:40:02.033Z,100347.09
2022-11-16T04:42:03.805Z,100345.81
2022-11-16T04:44:05.883Z,100347.41
2022-11-16T04:46:07.859Z,100345.34
2022-11-16T04:48:10.754Z,100336.41
2022-11-16T04:50:12.909Z,100340.16
2022-11-16T04:52:14.741Z,100343.59
2022-11-16T04:54:16.448Z,100328.59
2022-11-16T04:56:18.323Z,100332.19
2022-11-16T04:58:20.052Z,100334.34
2022-11-16T05:00:22.423Z,100331.28
2022-11-16T05:02:24.232Z,100330.44
2022-11-16T05:04:26.421Z,100331.72
2022-11-16T05:06:28.107Z,100338.53
2022-11-16T05:08:29.862Z,100335.72
2022-11-16T05:10:31.667Z,100331.03
2022-11-16T05:12:34.609Z,100321.06
2022-11-16T05:14:36.405Z,100332.69
2022-11-16T05:16:38.141Z,100324.94
2022-11-16T05:18:39.889Z,100333.03
2022-11-16T05:20:41.698Z,100330.84
2022-11-16T05:22:43.659Z,100334.00
2022-11-16T05:24:45.765Z,100332.00
2022-11-16T05:26:47.570Z,100329.94
2022-11-16T05:28:49.412Z,100331.88
2022-11-16T05:30:51.217Z,100332.13
2022-11-16T05:32:52.967Z,100327.69
2022-11-16T05:34:54.821Z,100320.50
2022-11-16T05:36:57.567Z,100318.63
2022-11-16T05:38:59.320Z,100313.78
2022-11-16T05:41:01.052Z,100319.69
2022-11-16T05:43:02.798Z,100321.88
2022-11-16T05:45:04.994Z,100310.69
2022-11-16T05:47:06.891Z,100312.47
2022-11-16T05:49:09.043Z,100318.91
2022-11-16T05:51:10.879Z,100314.16
2022-11-16T05:53:12.843Z,100329.22
2022-11-16T05:55:14.609Z,100331.59
2022-11-16T05:57:16.370Z,100330.22
2022-11-16T05:59:20.118Z,100325.75
2022-11-16T06:01:21.884Z,100327.31
2022-11-16T06:03:23.864Z,100323.72
2022-11-16T06:05:25.677Z,100323.13
2022-11-16T06:07:27.457Z,100325.63
2022-11-16T06:09:29.481Z,100318.13
2022-11-16T06:11:35.703Z,100332.22
2022-11-16T06:13:38.087Z,100324.88
2022-11-16T06:15:40.682Z,100325.28
2022-11-16T06:17:42.539Z,100328.22
2022-11-16T06:19:44.315Z,100324.56
2022-11-16T06:21:46.109Z,100328.19
2022-11-16T06:23:48.066Z,100322.44
2022-11-16T06:25:54.608Z,100316.22
2022-11-16T06:27:56.935Z,100319.41
2022-11-16T06:29:58.694Z,100321.28
2022-11-16T06:32:00.442Z,100312.22
2022-11-16T06:34:02.281Z,100320.88
2022-11-16T06:36:04.212Z,100313.81
2022-11-16T06:38:06.345Z,100313.59
2022-11-16T06:40:11.376Z,100262.47
2022-11-16T06:42:13.203Z,100312.34
2022-11-16T06:44:14.888Z,100309.97
2022-11-16T06:46:16.784Z,100315.38
2022-11-16T06:48:19.648Z,100309.47
2022-11-16T06:50:21.377Z,100306.78
2022-11-16T06:52:23.184Z,100313.00
2022-11-16T06:54:24.952Z,100311.41
2022-11-16T06:56:26.712Z,100307.72
2022-11-16T06:58:30.730Z,100308.63
2022-11-16T07:00:32.856Z,100308.63
2022-11-16T07:02:37.203Z,100309.97
2022-11-16T07:04:38.989Z,100312.97
2022-11-16T07:06:41.652Z,100311.81
2022-11-16T07:08:43.527Z,100307.38
2022-11-16T07:10:45.298Z,100308.88
2022-11-16T07:12:47.430Z,100310.03
2022-11-16T07:14:49.172Z,100308.22
2022-11-16T07:16:54.865Z,100304.50
2022-11-16T07:18:59.942Z,100297.84
2022-11-16T07:21:16.260Z,100304.69
2022-11-16T07:23:18.264Z,100303.91
2022-11-16T07:25:20.022Z,100307.16
2022-11-16T07:27:21.774Z,100311.25
2022-11-16T07:29:23.591Z,100312.88
2022-11-16T07:31:25.519Z,100316.63
2022-11-16T07:33:27.210Z,100313.72
2022-11-16T07:35:29.172Z,100297.84
2022-11-16T07:37:30.999Z,100307.84
2022-11-16T07:39:32.712Z,100307.13
2022-11-16T07:41:34.540Z,100295.09
2022-11-16T07:43:37.000Z,100308.16
2022-11-16T07:45:38.837Z,100304.38
2022-11-16T07:47:40.622Z,100295.66
2022-11-16T07:49:42.414Z,100306.88
2022-11-16T07:51:44.555Z,100305.31
2022-11-16T07:53:46.736Z,100309.28
2022-11-16T07:55:54.863Z,100306.66
2022-11-16T07:57:56.967Z,100302.97
2022-11-16T07:59:58.796Z,100303.91
2022-11-16T08:02:00.808Z,100303.06
2022-11-16T08:04:02.706Z,100305.94
2022-11-16T08:06:07.270Z,100309.63
2022-11-16T08:08:09.031Z,100311.91
2022-11-16T08:10:10.769Z,100307.94
2022-11-16T08:12:12.912Z,100313.53
2022-11-16T08:14:14.865Z,100318.69
2022-11-16T08:16:19.118Z,100308.88
2022-11-16T08:18:20.948Z,100308.50
2022-11-16T08:20:22.888Z,100316.53
2022-11-16T08:22:24.588Z,100314.69
2022-11-16T08:24:26.427Z,100310.88
2022-11-16T08:26:28.269Z,100308.88
2022-11-16T08:28:31.072Z,100312.91
2022-11-16T08:30:33.123Z,100305.81
2022-11-16T08:32:34.951Z,100301.19
2022-11-16T08:34:36.677Z,100297.13
2022-11-16T08:36:38.610Z,100295.72
2022-11-16T08:38:40.596Z,100304.22
2022-11-16T08:40:42.372Z,100305.53
2022-11-16T08:42:44.251Z,100301.66
2022-11-16T08:44:46.292Z,100302.13
2022-11-16T08:46:48.005Z,100301.38
2022-11-16T08:48:49.848Z,100302.34
2022-11-16T08:51:15.765Z,100308.75
2022-11-16T08:53:13.719Z,100311.41
2022-11-16T08:55:15.620Z,100319.59
2022-11-16T08:57:17.536Z,100320.66
2022-11-16T08:59:19.231Z,100314.66
2022-11-16T09:01:25.288Z,100303.63
2022-11-16T09:03:27.854Z,100322.25
2022-11-16T09:05:29.915Z,100316.41
2022-11-16T09:07:32.181Z,100315.59
2022-11-16T09:09:34.256Z,100319.59
2022-11-16T09:11:36.020Z,100312.75
2022-11-16T09:13:38.365Z,100317.50
2022-11-16T09:15:40.182Z,100312.94
2022-11-16T09:17:41.936Z,100318.44
2022-11-16T09:19:43.770Z,100305.94
2022-11-16T09:21:45.609Z,100320.09
2022-11-16T09:23:48.534Z,100322.00
2022-11-16T09:25:50.485Z,100320.50
2022-11-16T09:27:55.060Z,100320.50
2022-11-16T09:29:56.818Z,100311.28
2022-11-16T09:31:58.643Z,100314.47
2022-11-16T09:34:00.706Z,100307.25
2022-11-16T09:36:04.957Z,100320.66
2022-11-16T09:38:07.118Z,100303.19
2022-11-16T09:40:09.577Z,100302.09
2022-11-16T09:42:41.512Z,100292.66
2022-11-16T09:44:59.334Z,100306.00
2022-11-16T09:47:02.242Z,100304.28
2022-11-16T09:49:17.414Z,100289.31
2022-11-16T09:51:22.598Z,100297.91
2022-11-16T09:53:52.851Z,100288.09
2022-11-16T09:55:58.981Z,100299.47
2022-11-16T09:58:06.397Z,100288.53
2022-11-16T10:00:21.656Z,100290.03
2022-11-16T10:02:44.345Z,100288.34
2022-11-16T10:04:57.905Z,100282.66
2022-11-16T10:07:08.749Z,100281.28
2022-11-16T10:09:12.246Z,100279.53
2022-11-16T10:11:26.650Z,100274.06
2022-11-16T10:14:04.167Z,100271.53
2022-11-16T10:16:18.003Z,100269.97
2022-11-16T10:18:30.586Z,100275.38
2022-11-16T10:20:48.415Z,100274.28
2022-11-16T10:23:13.858Z,100278.94
2022-11-16T10:25:21.285Z,100281.16
2022-11-16T10:27:32.323Z,100268.00
2022-11-16T10:29:59.089Z,100262.84
2022-11-16T10:32:23.994Z,100277.06
2022-11-16T10:34:38.140Z,100280.88
2022-11-16T10:36:39.992Z,100269.25
2022-11-16T10:38:43.913Z,100265.34
2022-11-16T10:40:51.625Z,100259.75
2022-11-16T10:43:15.036Z,100266.44
2022-11-16T10:45:59.017Z,100266.53
2022-11-16T10:48:11.386Z,100262.97
2022-11-16T10:50:31.721Z,100267.72
2022-11-16T10:52:33.468Z,100249.56
2022-11-16T10:54:38.835Z,100259.81
2022-11-16T10:56:49.552Z,100265.06
2022-11-16T10:58:55.639Z,100248.72
2022-11-16T11:00:57.431Z,100256.09
2022-11-16T11:02:59.172Z,100261.00
2022-11-16T11:05:19.374Z,100255.50
2022-11-16T11:07:31.492Z,100250.06
2022-11-16T11:09:37.986Z,100255.06
2022-11-16T11:11:39.670Z,100256.88
2022-11-16T11:13:41.514Z,100252.09
2022-11-16T11:15:44.556Z,100259.31
2022-11-16T11:17:48.524Z,100257.19
2022-11-16T11:20:19.760Z,100258.78
2022-11-16T11:22:21.576Z,100263.03
2022-11-16T11:24:52.189Z,100256.09
2022-11-16T11:26:53.083Z,100243.66
2022-11-16T11:28:55.233Z,100262.25
2022-11-16T11:31:01.856Z,100260.66
2022-11-16T11:33:11.436Z,100263.16
2022-11-16T11:35:42.812Z,100248.97
2022-11-16T11:37:48.908Z,100259.69
2022-11-16T11:40:24.650Z,100251.66
2022-11-16T11:42:26.454Z,100258.19
2022-11-16T11:44:43.345Z,100258.38
2022-11-16T11:47:42.443Z,100255.56
2022-11-16T11:49:23.625Z,100253.00
2022-11-16T11:51:31.280Z,100234.38
2022-11-16T11:54:03.255Z,100257.72
2022-11-16T11:56:05.370Z,100265.66
2022-11-16T11:58:15.061Z,100254.31
2022-11-16T12:00:17.281Z,100254.59
2022-11-16T12:03:00.790Z,100261.13
2022-11-16T12:05:23.794Z,100268.47
2022-11-16T12:07:31.494Z,100255.25
2022-11-16T12:10:09.345Z,100261.38
2022-11-16T12:12:29.539Z,100256.84
2022-11-16T12:14:58.810Z,100261.78
2022-11-16T12:17:47.183Z,100258.47
2022-11-16T12:19:57.827Z,100252.09
2022-11-16T12:22:33.956Z,100259.69
2022-11-16T12:24:53.018Z,100247.88
2022-11-16T12:27:09.785Z,100255.16
2022-11-16T12:29:34.409Z,100258.13
2022-11-16T12:31:38.970Z,100257.16
2022-11-16T12:34:31.350Z,100261.56
2022-11-16T12:36:35.840Z,100267.47
2022-11-16T12:38:56.711Z,100273.41
2022-11-16T12:41:24.041Z,100265.41
2022-11-16T12:44:00.588Z,100271.63
2022-11-16T12:46:31.447Z,100272.81
2022-11-16T12:48:43.939Z,100271.56
2022-11-16T12:51:13.495Z,100272.16
2022-11-16T12:53:21.602Z,100272.69
2022-11-16T12:55:51.636Z,100266.34
2022-11-16T12:57:56.525Z,100267.91
2022-11-16T13:00:08.617Z,100267.41
2022-11-16T13:02:48.566Z,100266.81
2022-11-16T13:04:58.414Z,100261.72
2022-11-16T13:07:11.400Z,100280.56
2022-11-16T13:09:16.487Z,100291.78
2022-11-16T13:11:40.731Z,100282.28
2022-11-16T13:13:49.610Z,100274.63
2022-11-16T13:15:54.851Z,100279.63
2022-11-16T13:18:00.261Z,100281.06
2022-11-16T13:20:25.080Z,100283.81
2022-11-16T13:22:27.623Z,100293.59
2022-11-16T13:25:00.473Z,100278.09
2022-11-16T13:27:35.510Z,100281.66
2022-11-16T13:30:02.236Z,100277.72
2022-11-16T13:32:06.590Z,100284.38
2022-11-16T13:34:18.565Z,100290.84
2022-11-16T13:36:42.851Z,100285.34
2022-11-16T13:38:52.635Z,100291.63
2022-11-16T13:41:14.263Z,100294.09
2022-11-16T13:43:18.990Z,100285.75
2022-11-16T13:45:22.390Z,100282.75
2022-11-16T13:47:28.591Z,100283.06
2022-11-16T13:49:34.397Z,100293.41
2022-11-16T13:51:36.162Z,100286.84
2022-11-16T13:56:05.171Z,100287.78
2022-11-16T13:58:09.991Z,100290.19
2022-11-16T14:00:20.366Z,100272.63
2022-11-16T14:02:39.302Z,100282.38
2022-11-16T14:04:54.869Z,100290.03
2022-11-16T14:06:58.623Z,100286.69
2022-11-16T14:09:00.773Z,100285.00
2022-11-16T14:11:02.546Z,100295.63
2022-11-16T14:13:05.395Z,100274.75
2022-11-16T14:15:26.067Z,100288.59
2022-11-16T14:17:56.893Z,100294.41
2022-11-16T14:19:58.658Z,100293.84
2022-11-16T14:22:13.337Z,100292.53
2022-11-16T14:24:33.292Z,100294.34
2022-11-16T14:27:07.120Z,100283.53
2022-11-16T14:29:15.994Z,100283.44
2022-11-16T14:31:26.660Z,100280.00
2022-11-16T14:33:32.439Z,100297.50
2022-11-16T14:35:36.129Z,100291.41
2022-11-16T14:37:41.971Z,100297.38
2022-11-16T14:39:44.731Z,100301.56
2022-11-16T14:41:47.701Z,100285.94
2022-11-16T14:43:54.228Z,100297.88
2022-11-16T14:46:09.130Z,100303.03
2022-11-16T14:48:17.295Z,100292.38
2022-11-16T14:50:22.784Z,100289.75
2022-11-16T14:52:40.472Z,100288.56
2022-11-16T14:55:05.325Z,100288.97
2022-11-16T14:57:22.788Z,100290.75
2022-11-16T14:59:24.883Z,100295.16
2022-11-16T15:01:39.609Z,100311.06
2022-11-16T15:03:54.395Z,100300.06
2022-11-16T15:06:01.174Z,100284.28
2022-11-16T15:08:13.670Z,100282.81
2022-11-16T15:10:19.933Z,100282.91
2022-11-16T15:12:25.572Z,100288.94
2022-11-16T15:14:32.094Z,100288.06
2022-11-16T15:16:33.802Z,100286.41
2022-11-16T15:18:35.809Z,100284.13
2022-11-16T15:20:46.690Z,100287.59
2022-11-16T15:22:59.460Z,100277.16
2022-11-16T15:25:01.878Z,100282.16
2022-11-16T15:27:25.790Z,100291.50
2022-11-16T15:29:27.655Z,100289.47
2022-11-16T15:31:29.352Z,100280.56
2022-11-16T15:33:34.153Z,100286.00
2022-11-16T15:35:38.210Z,100285.38
2022-11-16T15:37:39.896Z,100280.75
2022-11-16T15:39:42.963Z,100281.63
2022-11-16T15:41:45.176Z,100294.41
2022-11-16T15:44:12.394Z,100290.84
2022-11-16T15:46:15.226Z,100285.59
2022-11-16T15:48:23.227Z,100275.94
2022-11-16T15:50:25.095Z,100260.91
2022-11-16T15:52:47.893Z,100289.16
2022-11-16T15:54:58.042Z,100275.50
2022-11-16T15:57:08.774Z,100285.19
2022-11-16T15:59:13.969Z,100281.22
2022-11-16T16:01:17.246Z,100275.53
2022-11-16T16:03:27.773Z,100292.09
2022-11-16T16:05:40.630Z,100293.56
2022-11-16T16:07:44.003Z,100288.50
2022-11-16T16:09:45.772Z,100291.41
2022-11-16T16:11:47.537Z,100288.28
2022-11-16T16:14:03.691Z,100290.88
2022-11-16T16:16:27.430Z,100288.09
2022-11-16T16:18:29.216Z,100285.81
2022-11-16T16:20:32.788Z,100290.28
2022-11-16T16:22:37.548Z,100286.03
2022-11-16T16:24:41.119Z,100291.44
2022-11-16T16:26:42.823Z,100294.16
2022-11-16T16:28:44.965Z,100300.06
2022-11-16T16:30:46.921Z,100300.59
2022-11-16T16:32:49.675Z,100307.84
2022-11-16T16:34:58.584Z,100296.09
2022-11-16T16:37:00.330Z,100308.00
2022-11-16T16:39:02.032Z,100295.00
2022-11-16T16:41:05.367Z,100297.50
2022-11-16T16:43:07.189Z,100298.16
2022-11-16T16:45:18.959Z,100299.78
2022-11-16T16:47:20.845Z,100306.97
2022-11-16T16:49:22.670Z,100305.19
2022-11-16T16:51:24.455Z,100298.38
2022-11-16T16:53:26.208Z,100300.16
2022-11-16T16:55:30.620Z,100312.13
2022-11-16T16:57:34.681Z,100301.63
2022-11-16T16:59:36.391Z,100299.97
2022-11-16T17:01:38.295Z,100306.06
2022-11-16T17:03:40.154Z,100303.06
2022-11-16T17:05:41.858Z,100305.06
2022-11-16T17:07:43.851Z,100305.00
2022-11-16T17:09:46.105Z,100303.16
2022-11-16T17:11:48.150Z,100308.19
2022-11-16T17:13:49.927Z,100295.03
2022-11-16T17:15:51.725Z,100306.69
2022-11-16T17:17:53.464Z,100304.84
2022-11-16T17:19:55.214Z,100311.31
2022-11-16T17:21:56.900Z,100312.13
2022-11-16T17:23:58.634Z,100304.81
2022-11-16T17:26:04.511Z,100291.41
2022-11-16T17:28:06.325Z,100299.22
2022-11-16T17:30:08.880Z,100311.75
2022-11-16T17:32:10.775Z,100307.56
2022-11-16T17:34:14.145Z,100308.31
2022-11-16T17:36:16.344Z,100309.81
2022-11-16T17:38:18.033Z,100306.69
2022-11-16T17:40:19.776Z,100306.03
2022-11-16T17:42:21.533Z,100314.59
2022-11-16T17:44:23.217Z,100315.97
2022-11-16T17:46:25.441Z,100312.50
2022-11-16T17:48:27.207Z,100318.88
2022-11-16T17:50:29.029Z,100316.81
2022-11-16T17:52:30.886Z,100318.34
2022-11-16T17:54:32.569Z,100319.16
2022-11-16T17:56:34.385Z,100312.78
2022-11-16T17:58:36.199Z,100318.88
2022-11-16T18:00:37.891Z,100306.41
2022-11-16T18:02:39.717Z,100310.44
2022-11-16T18:04:43.606Z,100303.91
2022-11-16T18:06:47.387Z,100307.25
2022-11-16T18:08:49.310Z,100308.69
2022-11-16T18:10:51.048Z,100311.56
2022-11-16T18:12:53.025Z,100309.31
2022-11-16T18:15:21.228Z,100310.59
2022-11-16T18:17:16.530Z,100314.19
2022-11-16T18:19:19.427Z,100311.97
2022-11-16T18:21:21.567Z,100311.44
2022-11-16T18:23:23.288Z,100310.38
2022-11-16T18:25:25.241Z,100309.41
2022-11-16T18:27:27.179Z,100311.59
2022-11-16T18:29:28.861Z,100309.03
2022-11-16T18:31:30.594Z,100301.72
2022-11-16T18:33:33.288Z,100310.31
2022-11-16T18:35:35.467Z,100306.81
2022-11-16T18:37:37.185Z,100316.13
2022-11-16T18:39:39.181Z,100312.44
2022-11-16T18:41:51.522Z,100292.19
2022-11-16T18:44:01.006Z,100304.13
2022-11-16T18:46:03.468Z,100304.97
2022-11-16T18:48:05.309Z,100305.66
2022-11-16T18:50:08.328Z,100310.75
2022-11-16T18:52:13.095Z,100313.06
2022-11-16T18:54:14.780Z,100312.03
2022-11-16T18:56:17.340Z,100305.50
2022-11-16T18:58:43.607Z,100303.50
2022-11-16T19:00:42.082Z,100313.22
2022-11-16T19:02:43.913Z,100318.88
2022-11-16T19:04:46.401Z,100316.63
2022-11-16T19:06:48.095Z,100313.88
2022-11-16T19:08:56.859Z,100324.94
2022-11-16T19:11:07.299Z,100311.56
2022-11-16T19:13:09.081Z,100316.13
2022-11-16T19:15:11.033Z,100300.03
2022-11-16T19:17:13.080Z,100319.25
2022-11-16T19:19:14.969Z,100312.31
2022-11-16T19:21:18.064Z,100312.78
2022-11-16T19:23:20.198Z,100325.88
2022-11-16T19:25:21.948Z,100323.84
2022-11-16T19:27:23.680Z,100330.91
2022-11-16T19:29:26.316Z,100324.41
2022-11-16T19:31:29.398Z,100325.44
2022-11-16T19:33:31.342Z,100323.56
2022-11-16T19:35:33.593Z,100321.75
2022-11-16T19:37:35.261Z,100324.75
2022-11-16T19:39:37.020Z,100320.63
2022-11-16T19:41:39.961Z,100320.91
2022-11-16T19:43:42.103Z,100318.63
2022-11-16T19:45:43.852Z,100315.81
2022-11-16T19:47:46.082Z,100323.41
2022-11-16T19:49:47.789Z,100324.09
2022-11-16T19:51:49.532Z,100333.56
2022-11-16T19:53:51.827Z,100322.13
2022-11-16T19:55:54.172Z,100326.66
2022-11-16T19:57:56.062Z,100325.25
2022-11-16T19:59:58.385Z,100322.59
2022-11-16T20:02:00.105Z,100310.59
2022-11-16T20:04:03.410Z,100321.66
2022-11-16T20:06:14.132Z,100328.59
2022-11-16T20:08:15.833Z,100319.22
2022-11-16T20:10:17.712Z,100320.28
2022-11-16T20:12:19.830Z,100318.84
2022-11-16T20:14:21.587Z,100323.63
2022-11-16T20:16:25.920Z,100320.41
2022-11-16T20:18:27.952Z,100319.56
2022-11-16T20:20:29.687Z,100320.97
2022-11-16T20:22:31.379Z,100331.88
2022-11-16T20:24:34.727Z,100335.69
2022-11-16T20:26:40.873Z,100329.72
2022-11-16T20:28:44.031Z,100333.47
2022-11-16T20:30:49.193Z,100324.19
2022-11-16T20:32:50.923Z,100322.41
2022-11-16T20:34:52.677Z,100309.66
2022-11-16T20:36:54.703Z,100320.00
2022-11-16T20:38:58.026Z,100318.72
2022-11-16T20:41:12.579Z,100293.75
2022-11-16T20:43:14.862Z,100325.59
2022-11-16T20:45:16.721Z,100320.50
2022-11-16T20:47:18.642Z,100328.84
2022-11-16T20:49:21.408Z,100329.78
2022-11-16T20:51:23.465Z,100324.13
2022-11-16T20:53:25.159Z,100328.56
2022-11-16T20:55:27.178Z,100321.41
2022-11-16T20:57:28.908Z,100314.28
2022-11-16T20:59:30.639Z,100324.28
2022-11-16T21:01:32.633Z,100319.72
2022-11-16T21:03:35.261Z,100328.22
2022-11-16T21:05:45.120Z,100324.91
2022-11-16T21:07:47.233Z,100332.16
2022-11-16T21:09:49.001Z,100332.81
2022-11-16T21:11:50.726Z,100329.44
2022-11-16T21:13:53.224Z,100334.19
2022-11-16T21:16:07.369Z,100335.19
2022-11-16T21:18:09.082Z,100329.63
2022-11-16T21:20:28.200Z,100337.13
2022-11-16T21:22:32.742Z,100324.97
2022-11-16T21:24:34.701Z,100321.41
2022-11-16T21:26:37.297Z,100316.13
2022-11-16T21:28:39.738Z,100319.16
2022-11-16T21:30:41.463Z,100317.34
2022-11-16T21:32:43.368Z,100325.94
2022-11-16T21:34:45.085Z,100319.63
2022-11-16T21:36:46.818Z,100320.81
2022-11-16T21:38:49.027Z,100312.38
2022-11-16T21:40:51.247Z,100308.41
2022-11-16T21:42:52.978Z,100316.69
2022-11-16T21:44:55.173Z,100325.59
2022-11-16T21:46:56.903Z,100315.28
2022-11-16T21:48:58.633Z,100312.59
2022-11-16T21:51:06.300Z,100317.94
2022-11-16T21:53:08.711Z,100313.91
2022-11-16T21:55:10.424Z,100324.13
2022-11-16T21:57:12.607Z,100307.25
2022-11-16T21:59:14.347Z,100312.88
2022-11-16T22:01:16.415Z,100312.38
2022-11-16T22:03:18.587Z,100316.00
2022-11-16T22:05:20.576Z,100311.72
2022-11-16T22:07:22.597Z,100313.41
2022-11-16T22:09:24.635Z,100306.47
2022-11-16T22:13:45.565Z,100320.69
2022-11-16T22:15:47.607Z,100320.53
2022-11-16T22:17:49.358Z,100313.59
2022-11-16T22:19:51.096Z,100260.84
2022-11-16T22:21:52.968Z,100321.66
2022-11-16T22:23:54.829Z,100316.50
2022-11-16T22:26:08.351Z,100310.38
2022-11-16T22:28:25.740Z,100312.38
2022-11-16T22:30:27.497Z,100318.97
2022-11-16T22:32:29.216Z,100314.09
2022-11-16T22:34:31.706Z,100319.72
2022-11-16T22:36:33.435Z,100313.06
2022-11-16T22:38:35.383Z,100308.03
2022-11-16T22:40:37.593Z,100316.88
2022-11-16T22:42:39.342Z,100314.66
2022-11-16T22:44:41.133Z,100319.63
2022-11-16T22:46:43.021Z,100327.38
2022-11-16T22:48:44.774Z,100324.69
2022-11-16T22:50:46.574Z,100337.13
2022-11-16T22:52:48.531Z,100328.38
2022-11-16T22:54:50.277Z,100327.09
2022-11-16T22:56:52.130Z,100328.41
2022-11-16T22:58:54.384Z,100332.28
2022-11-16T23:00:56.121Z,100329.84
2022-11-16T23:02:57.948Z,100328.00
2022-11-16T23:04:59.826Z,100327.47
2022-11-16T23:07:01.662Z,100322.59
2022-11-16T23:09:04.092Z,100317.81
2022-11-16T23:11:09.259Z,100319.16
2022-11-16T23:13:11.062Z,100316.91
2022-11-16T23:15:13.359Z,100322.78
2022-11-16T23:17:15.230Z,100322.31
2022-11-16T23:19:18.817Z,100322.91
2022-11-16T23:21:21.174Z,100326.72
2022-11-16T23:23:23.109Z,100327.09
2022-11-16T23:25:24.880Z,100320.56
2022-11-16T23:27:32.562Z,100325.03
2022-11-16T23:29:34.707Z,100324.41
2022-11-16T23:31:37.953Z,100329.44
2022-11-16T23:33:39.712Z,100327.09
2022-11-16T23:35:41.674Z,100319.59
2022-11-16T23:38:09.773Z,100315.41
2022-11-16T23:40:11.783Z,100320.53
2022-11-16T23:42:13.843Z,100317.75
2022-11-16T23:44:15.806Z,100318.19
2022-11-16T23:46:17.544Z,100318.69
2022-11-16T23:48:19.584Z,100317.38
2022-11-16T23:50:21.594Z,100318.94
2022-11-16T23:52:23.336Z,100315.84
2022-11-16T23:54:25.391Z,100320.28
2022-11-16T23:56:27.792Z,100315.38
2022-11-16T23:58:29.551Z,100318.41
